GCRR METAR and TAF | Updated Today

GCRR METAR

Lanzarote Airport

Observation time: 12 min. ago

GCRR 291130Z VRB03KT 9999 FEW035 BKN040 24/14 Q1016

Need help? Read our tutorial on how to read METARs or read the parsed version below.

Lanzarote Airport (GCRR) METAR

  • Weather conditions on Sun, 29 May 2022 11:30:00 +0000 (12 min. ago):
  • Present conditions: Dry
  • Clouds: A few at 1067 meters; broken sky at 1219 meters
  • Visibility: Greater than 10 km
  • Wind: Variable at 3 knots
  • Temperature: 24 celsius
  • Dew point: 14 celsius
  • Pressure: 1016 millibars
  • Remarks: None


Useful to know...

GCRR TAF

Lanzarote Airport

TAF GCRR 290800Z 2909/3009 35005KT 9999 FEW030 TX26/2914Z TN17/3006Z BECMG 2911/2913 10010KT BECMG 2918/2920 27004KT
Observation time: 3:42 hr. ago
Need help? Read our tutorial on how to read TAFs or read the parsed version below.

Parsed version of TAF for Lanzarote Airport (GCRR)

  • From 29 May at 09:00 UTC, to day 30 of the month at 09:00 UTC
  • Clouds: A few at 914 meters
  • Visibility: Greater than 10 km
  • Wind: 350 degrees at 5
  • Expected to arise soon, from 29 May at 11:00 UTC, to day 29 of the month at 13:00 UTC
  • Wind: 100 degrees at 10
  • Expected to arise soon, from 29 May at 18:00 UTC, to day 29 of the month at 20:00 UTC
  • Wind: 270 degrees at 4